Погода Кейп Кроссна 2 недели

Карас, Намибия

23 июня-06 июля
  • 23июня
    Сегодня
    +18°
    +36°
    Ясно и безоблачно
    ВремяПогодаТемператураВлажностьДавлениеВетер, м/сВероятность осадков
    02:00Ясно и безоблачно+18°C35 %760 мм2.8 м/с4 %
    05:00Ясно и безоблачно+20°C29 %759 мм6.3 м/с4 %
    08:00Ясно и безоблачно+22°C28 %759 мм10.1 м/с4 %
    11:00Ясно и безоблачно+29°C21 %761 мм12.1 м/с4 %
    14:00Ясно и безоблачно+35°C16 %759 мм8.7 м/с4 %
    17:00Ясно и безоблачно+34°C18 %758 мм1.3 м/с4 %
    20:00Ясно и безоблачно+21°C50 %760 мм5.6 м/с4 %
    23:00Ясно и безоблачно+18°C49 %761 мм4.3 м/с4 %
  • 24июня
    Понедельник
    +15°
    +35°
    Ясно и безоблачно
    ВремяПогодаТемператураВлажностьДавлениеВетер, м/сВероятность осадков
    02:00Ясно и безоблачно+21°C36 %761 мм0.7 м/с4 %
    05:00Ясно и безоблачно+20°C31 %761 мм4.1 м/с4 %
    08:00Ясно и безоблачно+20°C33 %762 мм7.5 м/с4 %
    11:00Ясно и безоблачно+28°C22 %762 мм10.5 м/с4 %
    14:00Ясно и безоблачно+35°C20 %760 мм3.6 м/с4 %
    17:00Ясно и безоблачно+27°C39 %760 мм4.7 м/с4 %
    20:00Ясно и безоблачно+19°C56 %761 мм5.0 м/с4 %
    23:00Практически безоблачно+18°C52 %762 мм5.1 м/с4 %
  • 25июня
    Вторник
    +17°
    +37°
    Ясно и безоблачно
    ВремяПогодаТемператураВлажностьДавлениеВетер, м/сВероятность осадков
    02:00Небольшая облачность+17°C52 %761 мм3.1 м/с4 %
    05:00Практически безоблачно+17°C44 %761 мм4.0 м/с4 %
    08:00Ясно и безоблачно+21°C39 %761 мм7.0 м/с4 %
    11:00Ясно и безоблачно+30°C26 %762 мм10.6 м/с4 %
    14:00Ясно и безоблачно+36°C20 %760 мм8.3 м/с4 %
    17:00Ясно и безоблачно+35°C25 %759 мм4.6 м/с4 %
    20:00Ясно и безоблачно+19°C60 %760 мм7.3 м/с4 %
    23:00Ясно и безоблачно+18°C55 %760 мм4.5 м/с4 %
  • 26июня
    Среда
    +21°
    +37°
    Ясно и безоблачно
    ВремяПогодаТемператураВлажностьДавлениеВетер, м/сВероятность осадков
    02:00Ясно и безоблачно+19°C44 %759 мм3.4 м/с4 %
    05:00Ясно и безоблачно+24°C30 %759 мм10.8 м/с4 %
    08:00Ясно и безоблачно+24°C32 %760 мм11.6 м/с4 %
    11:00Ясно и безоблачно+30°C26 %760 мм12.2 м/с4 %
    14:00Ясно и безоблачно+37°C21 %758 мм8.9 м/с4 %
    17:00Ясно и безоблачно+36°C24 %757 мм2.5 м/с4 %
    20:00Ясно и безоблачно+23°C45 %758 мм5.0 м/с4 %
    23:00Ясно и безоблачно+22°C40 %758 мм4.1 м/с4 %
  • 27июня
    Четверг
    +21°
    +39°
    Ясно и безоблачно
    ВремяПогодаТемператураВлажностьДавлениеВетер, м/сВероятность осадков
    02:00Ясно и безоблачно+26°C29 %758 мм10.4 м/с4 %
    05:00Ясно и безоблачно+26°C29 %757 мм13.5 м/с4 %
    08:00Ясно и безоблачно+25°C29 %758 мм13.4 м/с4 %
    11:00Ясно и безоблачно+30°C23 %759 мм13.3 м/с4 %
    14:00Ясно и безоблачно+38°C19 %757 мм10.8 м/с4 %
    17:00Ясно и безоблачно+34°C19 %757 мм1.4 м/с4 %
    20:00Ясно и безоблачно+26°C28 %758 мм1.8 м/с4 %
    23:00Ясно и безоблачно+23°C33 %758 мм3.5 м/с4 %
Мы используем cookies
Соглашаюсь